Time;durP1;ratioP1;P1;durP2;ratioP2;P2;SDS_P1;SDS_P2;PMS_P1;PMS_P2;Temp;Humidity;BMP_temperature;BMP_pressure;BME280_temperature;BME280_humidity;BME280_pressure;Samples;Min_cycle;Max_cycle;Signal;HPM_P1;HPM_P2
2022/04/08 00:01:41;;;;;;;;;;;12.90;99.90;;;;;;6244543;23;19904;-68
2022/04/08 00:04:08;;;;;;;;;;;12.90;99.90;;;;;;6244932;23;19903;-68
2022/04/08 00:06:34;;;;;;;;;;;12.90;99.90;;;;;;6217547;23;20317;-66
2022/04/08 00:08:59;;;;;;;;;;;12.90;99.90;;;;;;6244658;23;19914;-68
2022/04/08 00:11:25;;;;;;;;;;;12.90;99.90;;;;;;6244426;23;19938;-69
2022/04/08 00:13:53;;;;;;;;;;;12.80;99.90;;;;;;6244509;23;19910;-68
2022/04/08 00:16:19;;;;;;;;;;;12.90;99.90;;;;;;6244422;23;19982;-68
2022/04/08 00:18:45;;;;;;;;;;;12.90;99.90;;;;;;6245067;23;20094;-69
2022/04/08 00:21:11;;;;;;;;;;;12.80;99.90;;;;;;6245278;23;19910;-68
2022/04/08 00:23:37;;;;;;;;;;;12.80;99.90;;;;;;6244512;23;19909;-69
2022/04/08 00:26:06;;;;;;;;;;;12.80;99.90;;;;;;6243536;23;21459;-68
2022/04/08 00:28:32;;;;;;;;;;;12.80;99.90;;;;;;6244617;23;19943;-67
2022/04/08 00:30:58;;;;;;;;;;;12.80;99.90;;;;;;6244562;23;19948;-68
2022/04/08 00:33:23;;;;;;;;;;;12.80;99.90;;;;;;6244406;23;19923;-67
2022/04/08 00:35:49;;;;;;;;;;;12.80;99.90;;;;;;6217469;23;19903;-68
2022/04/08 00:38:15;;;;;;;;;;;12.80;99.90;;;;;;6245020;23;19914;-66
2022/04/08 00:40:41;;;;;;;;;;;12.80;99.90;;;;;;6244542;23;19978;-68
2022/04/08 00:43:14;;;;;;;;;;;12.80;99.90;;;;;;6245029;23;19903;-68
2022/04/08 00:45:40;;;;;;;;;;;12.80;99.90;;;;;;6244412;23;19904;-68
2022/04/08 00:48:07;;;;;;;;;;;12.80;99.90;;;;;;6244579;23;19922;-68
2022/04/08 00:50:35;;;;;;;;;;;12.80;99.90;;;;;;6244422;23;19904;-67
2022/04/08 00:53:01;;;;;;;;;;;12.80;99.90;;;;;;6217442;23;19903;-68
2022/04/08 00:55:27;;;;;;;;;;;12.80;99.90;;;;;;6244433;23;19903;-68
2022/04/08 00:57:53;;;;;;;;;;;12.80;99.90;;;;;;6244419;23;20212;-68
2022/04/08 01:00:22;;;;;;;;;;;12.80;99.90;;;;;;6244325;23;19904;-68
2022/04/08 01:02:48;;;;;;;;;;;12.80;99.90;;;;;;6217147;23;19977;-67
2022/04/08 01:05:14;;;;;;;;;;;12.80;99.90;;;;;;6244589;23;19915;-68
2022/04/08 01:07:40;;;;;;;;;;;12.80;99.90;;;;;;6217883;23;20006;-68
2022/04/08 01:10:06;;;;;;;;;;;12.80;99.90;;;;;;6244961;23;19965;-67
2022/04/08 01:12:32;;;;;;;;;;;12.70;99.90;;;;;;6246931;23;19994;-68
2022/04/08 01:14:59;;;;;;;;;;;12.70;99.90;;;;;;6246682;23;19995;-67
2022/04/08 01:17:25;;;;;;;;;;;12.80;99.90;;;;;;6246348;23;19903;-68
2022/04/08 01:19:51;;;;;;;;;;;12.70;99.90;;;;;;6246434;23;20038;-69
2022/04/08 01:22:20;;;;;;;;;;;12.70;99.90;;;;;;6246558;23;19958;-70
2022/04/08 01:24:49;;;;;;;;;;;12.70;99.90;;;;;;6246348;23;19907;-67
2022/04/08 01:27:17;;;;;;;;;;;12.70;99.90;;;;;;6246723;23;19908;-67
2022/04/08 01:29:43;;;;;;;;;;;12.70;99.90;;;;;;6246652;23;19904;-68
2022/04/08 01:32:08;;;;;;;;;;;12.70;99.90;;;;;;6246757;23;19907;-69
2022/04/08 01:34:34;;;;;;;;;;;12.70;99.90;;;;;;6246455;23;19903;-67
2022/04/08 01:37:00;;;;;;;;;;;12.70;99.90;;;;;;6246582;23;19904;-68
2022/04/08 01:39:26;;;;;;;;;;;12.70;99.90;;;;;;6245981;23;19968;-68
2022/04/08 01:41:52;;;;;;;;;;;12.70;99.90;;;;;;6218852;23;19904;-68
2022/04/08 01:44:17;;;;;;;;;;;12.70;99.90;;;;;;6246175;23;20304;-68
2022/04/08 01:46:43;;;;;;;;;;;12.70;99.90;;;;;;6246180;23;20002;-67
2022/04/08 01:49:09;;;;;;;;;;;12.70;99.90;;;;;;6218960;23;20243;-68
2022/04/08 01:51:35;;;;;;;;;;;12.60;99.90;;;;;;6218781;23;19911;-68
2022/04/08 01:54:01;;;;;;;;;;;12.70;99.90;;;;;;6245907;23;20225;-67
2022/04/08 01:56:26;;;;;;;;;;;12.70;99.90;;;;;;6246360;23;19903;-66
2022/04/08 01:58:52;;;;;;;;;;;12.70;99.90;;;;;;6246148;23;19962;-67
2022/04/08 02:01:18;;;;;;;;;;;12.70;99.90;;;;;;6246564;23;19938;-67
2022/04/08 02:03:44;;;;;;;;;;;12.70;99.90;;;;;;6246189;23;19910;-69
2022/04/08 02:06:10;;;;;;;;;;;12.70;99.90;;;;;;6245836;23;20186;-67
2022/04/08 02:08:36;;;;;;;;;;;12.70;99.90;;;;;;6246008;23;19919;-68
2022/04/08 02:11:02;;;;;;;;;;;12.80;99.90;;;;;;6245763;23;20253;-68
2022/04/08 02:13:28;;;;;;;;;;;12.80;99.90;;;;;;6245639;23;19908;-68
2022/04/08 02:15:54;;;;;;;;;;;12.80;99.90;;;;;;6218235;23;20055;-68
2022/04/08 02:18:19;;;;;;;;;;;12.80;99.90;;;;;;6245371;23;19931;-68
2022/04/08 02:20:45;;;;;;;;;;;12.80;99.90;;;;;;6218140;23;19971;-68
2022/04/08 02:23:11;;;;;;;;;;;12.80;99.90;;;;;;6245926;23;20224;-68
2022/04/08 02:25:37;;;;;;;;;;;12.80;99.90;;;;;;6246420;23;19907;-68
2022/04/08 02:28:03;;;;;;;;;;;12.80;99.90;;;;;;6245535;23;19912;-68
2022/04/08 02:30:29;;;;;;;;;;;12.70;99.90;;;;;;6245890;23;19966;-68
2022/04/08 02:32:57;;;;;;;;;;;12.70;99.90;;;;;;6245941;23;20018;-68
2022/04/08 02:35:23;;;;;;;;;;;12.70;99.90;;;;;;6245962;23;20280;-68
2022/04/08 02:37:49;;;;;;;;;;;12.70;99.90;;;;;;6245658;23;19935;-69
2022/04/08 02:40:14;;;;;;;;;;;12.70;99.90;;;;;;6245474;23;19919;-68
2022/04/08 02:42:41;;;;;;;;;;;12.70;99.90;;;;;;6245258;23;20343;-67
2022/04/08 02:45:07;;;;;;;;;;;12.70;99.90;;;;;;6245460;23;20023;-68
2022/04/08 02:47:39;;;;;;;;;;;12.70;99.90;;;;;;6245156;23;19911;-69
2022/04/08 02:50:05;;;;;;;;;;;12.70;99.90;;;;;;6245853;23;19904;-69
2022/04/08 02:52:31;;;;;;;;;;;12.70;99.90;;;;;;6218215;23;19911;-68
2022/04/08 02:54:56;;;;;;;;;;;12.60;99.90;;;;;;6218294;23;19940;-69
2022/04/08 02:57:23;;;;;;;;;;;12.60;99.90;;;;;;6245406;23;20186;-67
2022/04/08 02:59:52;;;;;;;;;;;12.60;99.90;;;;;;6245306;23;19903;-68
2022/04/08 03:02:19;;;;;;;;;;;12.60;99.90;;;;;;6218396;23;19911;-68
2022/04/08 03:04:45;;;;;;;;;;;12.60;99.90;;;;;;6245826;23;19904;-67
2022/04/08 03:07:11;;;;;;;;;;;12.70;99.90;;;;;;6245356;23;19922;-68
2022/04/08 03:09:37;;;;;;;;;;;12.70;99.90;;;;;;6245599;23;19908;-68
2022/04/08 03:12:04;;;;;;;;;;;12.70;99.90;;;;;;6218655;23;20236;-68
2022/04/08 03:14:31;;;;;;;;;;;12.70;99.90;;;;;;6245868;23;19910;-67
2022/04/08 03:16:57;;;;;;;;;;;12.70;99.90;;;;;;6245475;23;20209;-67
2022/04/08 03:19:23;;;;;;;;;;;12.70;99.90;;;;;;6246137;23;19908;-67
2022/04/08 03:21:48;;;;;;;;;;;12.70;99.90;;;;;;6218227;23;19904;-67
2022/04/08 03:24:14;;;;;;;;;;;12.70;99.90;;;;;;6247204;23;19978;-68
2022/04/08 03:26:40;;;;;;;;;;;12.70;99.90;;;;;;6246448;23;20260;-68
2022/04/08 03:29:06;;;;;;;;;;;12.70;99.90;;;;;;6246794;23;19912;-68
2022/04/08 03:31:32;;;;;;;;;;;12.70;99.90;;;;;;6246775;23;19903;-67
2022/04/08 03:33:58;;;;;;;;;;;12.70;99.90;;;;;;6219526;23;19935;-68
2022/04/08 03:36:24;;;;;;;;;;;12.60;99.90;;;;;;6246756;23;19935;-68
2022/04/08 03:38:50;;;;;;;;;;;12.60;99.90;;;;;;6246752;23;20344;-69
2022/04/08 03:41:16;;;;;;;;;;;12.60;99.90;;;;;;6247277;23;19975;-68
2022/04/08 03:43:41;;;;;;;;;;;12.50;99.90;;;;;;6246997;23;20263;-67
2022/04/08 03:46:07;;;;;;;;;;;12.50;99.90;;;;;;6246869;23;20265;-67
2022/04/08 03:48:33;;;;;;;;;;;12.50;99.90;;;;;;6245952;23;19987;-68
2022/04/08 03:50:59;;;;;;;;;;;12.50;99.90;;;;;;6246818;23;20281;-68
2022/04/08 03:53:24;;;;;;;;;;;12.40;99.90;;;;;;6246387;23;19903;-68
2022/04/08 03:55:50;;;;;;;;;;;12.50;99.90;;;;;;6246647;23;20300;-68
2022/04/08 03:58:16;;;;;;;;;;;12.40;99.90;;;;;;6246624;23;19953;-67
2022/04/08 04:00:42;;;;;;;;;;;12.40;99.90;;;;;;6246195;23;19965;-68
2022/04/08 04:03:08;;;;;;;;;;;12.40;99.90;;;;;;6246551;23;20435;-68
2022/04/08 04:05:36;;;;;;;;;;;12.40;99.90;;;;;;6246114;23;19903;-68
2022/04/08 04:08:02;;;;;;;;;;;12.30;99.90;;;;;;6246406;23;19922;-68
2022/04/08 04:10:28;;;;;;;;;;;12.20;99.90;;;;;;6245668;23;19915;-68
2022/04/08 04:12:54;;;;;;;;;;;12.20;99.90;;;;;;6246066;23;20214;-68
2022/04/08 04:15:20;;;;;;;;;;;12.20;99.90;;;;;;6246719;23;19907;-69
2022/04/08 04:17:46;;;;;;;;;;;12.10;99.90;;;;;;6246835;23;19904;-68
2022/04/08 04:20:12;;;;;;;;;;;12.20;99.90;;;;;;6246397;23;20232;-68
2022/04/08 04:22:38;;;;;;;;;;;12.20;99.90;;;;;;6247082;23;19904;-68
2022/04/08 04:25:04;;;;;;;;;;;12.10;99.90;;;;;;6247330;23;20296;-68
2022/04/08 04:27:30;;;;;;;;;;;12.20;99.90;;;;;;6219462;23;20339;-67
2022/04/08 04:29:56;;;;;;;;;;;12.20;99.90;;;;;;6246983;23;19987;-67
2022/04/08 04:32:22;;;;;;;;;;;12.20;99.90;;;;;;6246409;23;19914;-68
2022/04/08 04:34:48;;;;;;;;;;;12.20;99.90;;;;;;6246377;23;19903;-69
2022/04/08 04:37:14;;;;;;;;;;;12.30;99.90;;;;;;6244861;23;19907;-66
2022/04/08 04:39:40;;;;;;;;;;;12.30;99.90;;;;;;6245210;23;19926;-64
2022/04/08 04:42:07;;;;;;;;;;;12.30;99.90;;;;;;6244405;23;19904;-67
2022/04/08 04:44:33;;;;;;;;;;;12.30;99.90;;;;;;6243562;23;19910;-66
2022/04/08 04:46:58;;;;;;;;;;;12.40;99.90;;;;;;6242937;23;19994;-67
2022/04/08 04:49:24;;;;;;;;;;;12.40;99.90;;;;;;6244212;23;19978;-65
2022/04/08 04:51:51;;;;;;;;;;;12.40;99.90;;;;;;6244769;23;20328;-67
2022/04/08 04:54:17;;;;;;;;;;;12.40;99.90;;;;;;6244850;23;19908;-66
2022/04/08 04:56:43;;;;;;;;;;;12.40;99.90;;;;;;6244599;23;20026;-66
2022/04/08 04:59:09;;;;;;;;;;;12.50;99.90;;;;;;6246094;23;19966;-68
2022/04/08 05:01:35;;;;;;;;;;;12.50;99.90;;;;;;6245282;23;19946;-68
2022/04/08 05:04:01;;;;;;;;;;;12.50;99.90;;;;;;6218984;23;19904;-67
2022/04/08 05:06:27;;;;;;;;;;;12.50;99.90;;;;;;6246716;23;19927;-67
2022/04/08 05:08:53;;;;;;;;;;;12.60;99.90;;;;;;6246154;23;19907;-68
2022/04/08 05:11:19;;;;;;;;;;;12.60;99.90;;;;;;6245908;23;19951;-69
2022/04/08 05:13:44;;;;;;;;;;;12.70;99.90;;;;;;6245815;23;19908;-69
2022/04/08 05:16:10;;;;;;;;;;;12.80;99.90;;;;;;6246169;23;19935;-68
2022/04/08 05:18:37;;;;;;;;;;;12.80;99.90;;;;;;6244830;23;19942;-64
2022/04/08 05:21:03;;;;;;;;;;;12.80;99.90;;;;;;6246429;23;19904;-68
2022/04/08 05:23:29;;;;;;;;;;;12.90;99.90;;;;;;6246795;23;20348;-69
2022/04/08 05:25:58;;;;;;;;;;;13.00;99.90;;;;;;6246789;23;19904;-67
2022/04/08 05:28:24;;;;;;;;;;;13.50;99.90;;;;;;6246323;23;19954;-74
2022/04/08 05:30:51;;;;;;;;;;;14.60;99.90;;;;;;6245269;23;19908;-70
2022/04/08 05:33:16;;;;;;;;;;;16.00;99.90;;;;;;6245478;23;19914;-70
2022/04/08 05:35:42;;;;;;;;;;;17.10;99.90;;;;;;6246108;23;19936;-70
2022/04/08 05:38:08;;;;;;;;;;;18.20;99.90;;;;;;6245404;23;19904;-71
2022/04/08 05:40:34;;;;;;;;;;;18.90;99.90;;;;;;6245450;23;19967;-71
2022/04/08 05:43:00;;;;;;;;;;;19.20;99.90;;;;;;6244974;23;20313;-69
2022/04/08 05:45:26;;;;;;;;;;;19.90;99.90;;;;;;6245399;23;19942;-70
2022/04/08 05:47:54;;;;;;;;;;;20.10;99.90;;;;;;6244576;23;19934;-69
2022/04/08 05:50:20;;;;;;;;;;;21.00;99.90;;;;;;6244365;23;19994;-70
2022/04/08 05:52:47;;;;;;;;;;;22.30;99.90;;;;;;6217633;23;19904;-70
2022/04/08 05:55:13;;;;;;;;;;;23.30;99.80;;;;;;6244594;23;19911;-71
2022/04/08 05:57:42;;;;;;;;;;;24.80;98.40;;;;;;6246759;23;19986;-71
2022/04/08 06:00:10;;;;;;;;;;;25.10;96.00;;;;;;6246624;23;19942;-70
2022/04/08 06:02:48;;;;;;;;;;;26.20;95.90;;;;;;6246301;23;19907;-71
2022/04/08 06:05:20;;;;;;;;;;;28.10;93.10;;;;;;6246824;23;19910;-72
2022/04/08 06:07:54;;;;;;;;;;;29.70;90.30;;;;;;6246592;23;19918;-71
2022/04/08 06:10:22;;;;;;;;;;;30.90;85.70;;;;;;6246306;23;20288;-73
2022/04/08 06:12:48;;;;;;;;;;;31.70;81.10;;;;;;6246145;23;19950;-69
2022/04/08 06:15:15;;;;;;;;;;;32.70;77.80;;;;;;6244841;23;19904;-70
2022/04/08 06:17:40;;;;;;;;;;;32.90;74.40;;;;;;6218200;23;19907;-71
2022/04/08 06:20:09;;;;;;;;;;;32.20;74.70;;;;;;6219006;23;19986;-70
2022/04/08 06:22:38;;;;;;;;;;;32.90;73.70;;;;;;6245918;23;20003;-70
2022/04/08 06:25:04;;;;;;;;;;;33.60;72.60;;;;;;6246022;23;19904;-71
2022/04/08 06:27:30;;;;;;;;;;;34.30;70.50;;;;;;6245811;23;19911;-71
2022/04/08 06:29:56;;;;;;;;;;;34.80;69.10;;;;;;6245946;23;19903;-70
2022/04/08 06:32:23;;;;;;;;;;;35.30;67.50;;;;;;6245279;23;19904;-69
2022/04/08 06:34:48;;;;;;;;;;;35.70;65.70;;;;;;6245687;23;19903;-69
2022/04/08 06:37:14;;;;;;;;;;;35.70;64.90;;;;;;6245523;23;19903;-70
2022/04/08 06:39:40;;;;;;;;;;;35.80;64.10;;;;;;6245486;23;19911;-70
2022/04/08 06:42:06;;;;;;;;;;;35.60;63.90;;;;;;6245416;23;19914;-66
2022/04/08 06:44:32;;;;;;;;;;;35.50;63.70;;;;;;6218454;23;19908;-71
2022/04/08 06:46:58;;;;;;;;;;;35.70;62.90;;;;;;6245373;23;19963;-69
2022/04/08 06:49:23;;;;;;;;;;;35.90;62.70;;;;;;6245616;23;19915;-71
2022/04/08 06:51:50;;;;;;;;;;;36.00;62.70;;;;;;6245440;23;20224;-69
2022/04/08 06:54:15;;;;;;;;;;;36.10;62.60;;;;;;6245427;23;19914;-70
2022/04/08 06:56:41;;;;;;;;;;;36.30;61.60;;;;;;6245436;23;20235;-69
2022/04/08 06:59:07;;;;;;;;;;;36.20;61.00;;;;;;6245179;23;19908;-70
2022/04/08 07:01:33;;;;;;;;;;;35.80;61.20;;;;;;6245111;23;19975;-72
2022/04/08 07:03:59;;;;;;;;;;;36.10;62.10;;;;;;6244898;23;19904;-69
2022/04/08 07:06:24;;;;;;;;;;;36.70;60.40;;;;;;6219232;23;20371;-69
2022/04/08 07:08:50;;;;;;;;;;;36.40;58.90;;;;;;6245724;23;19957;-71
2022/04/08 07:11:16;;;;;;;;;;;36.70;58.50;;;;;;6246342;23;19923;-71
2022/04/08 07:13:42;;;;;;;;;;;35.30;58.40;;;;;;6219492;23;19904;-70
2022/04/08 07:16:08;;;;;;;;;;;36.00;59.20;;;;;;6246444;23;19903;-71
2022/04/08 07:18:35;;;;;;;;;;;35.50;59.30;;;;;;6218878;23;19903;-70
2022/04/08 07:21:01;;;;;;;;;;;34.70;59.90;;;;;;6246485;23;20281;-70
2022/04/08 07:23:26;;;;;;;;;;;34.00;61.20;;;;;;6244928;23;19960;-71
2022/04/08 07:25:52;;;;;;;;;;;34.60;60.80;;;;;;6246230;23;19982;-71
2022/04/08 07:28:18;;;;;;;;;;;34.20;60.40;;;;;;6246545;23;20346;-70
2022/04/08 07:30:44;;;;;;;;;;;33.40;60.60;;;;;;6246551;23;19910;-70
2022/04/08 07:33:10;;;;;;;;;;;32.70;63.20;;;;;;6246138;23;19935;-70
2022/04/08 07:35:37;;;;;;;;;;;31.90;63.30;;;;;;6246417;23;19935;-71
2022/04/08 07:38:06;;;;;;;;;;;30.90;65.60;;;;;;6246166;23;19908;-70
2022/04/08 07:40:32;;;;;;;;;;;29.90;67.50;;;;;;6246771;23;19907;-71
2022/04/08 07:42:57;;;;;;;;;;;28.70;68.80;;;;;;6246364;23;19930;-71
2022/04/08 07:45:28;;;;;;;;;;;28.10;70.40;;;;;;6246368;23;19903;-71
2022/04/08 07:47:55;;;;;;;;;;;27.70;71.90;;;;;;6246026;23;20102;-71
2022/04/08 07:50:21;;;;;;;;;;;27.40;72.70;;;;;;6218979;23;19904;-72
2022/04/08 07:52:47;;;;;;;;;;;26.40;73.40;;;;;;6246110;23;19907;-72
2022/04/08 07:55:13;;;;;;;;;;;25.50;76.60;;;;;;6245393;23;19957;-71
2022/04/08 07:57:45;;;;;;;;;;;25.30;77.30;;;;;;6245882;23;20314;-69
2022/04/08 08:00:12;;;;;;;;;;;25.00;76.90;;;;;;6245290;23;19943;-71
2022/04/08 08:02:38;;;;;;;;;;;25.00;78.40;;;;;;6245595;23;19914;-71
2022/04/08 08:05:05;;;;;;;;;;;24.70;78.00;;;;;;6245192;23;19903;-70
2022/04/08 08:07:31;;;;;;;;;;;24.10;79.50;;;;;;6245039;23;19919;-71
2022/04/08 08:09:57;;;;;;;;;;;23.80;81.00;;;;;;6244871;23;19985;-71
2022/04/08 08:12:22;;;;;;;;;;;23.70;81.50;;;;;;6245759;23;20375;-72
2022/04/08 08:14:48;;;;;;;;;;;24.20;81.00;;;;;;6245448;23;19904;-70
2022/04/08 08:17:14;;;;;;;;;;;24.30;80.30;;;;;;6246132;23;19904;-72
2022/04/08 08:19:40;;;;;;;;;;;24.60;79.30;;;;;;6245738;23;19903;-70
2022/04/08 08:22:06;;;;;;;;;;;24.80;79.30;;;;;;6245839;23;19986;-70
2022/04/08 08:24:32;;;;;;;;;;;24.90;77.50;;;;;;6246331;23;19978;-70
2022/04/08 08:26:58;;;;;;;;;;;24.80;77.90;;;;;;6245927;23;19907;-70
2022/04/08 08:29:24;;;;;;;;;;;25.00;77.60;;;;;;6246118;23;19911;-70
2022/04/08 08:31:50;;;;;;;;;;;24.80;77.20;;;;;;6245751;23;19910;-70
2022/04/08 08:34:16;;;;;;;;;;;25.00;76.60;;;;;;6246153;23;19904;-70
2022/04/08 08:36:41;;;;;;;;;;;25.00;77.60;;;;;;6245722;23;19904;-70
2022/04/08 08:39:07;;;;;;;;;;;25.10;78.00;;;;;;6246348;23;20265;-68
2022/04/08 08:41:34;;;;;;;;;;;25.30;77.60;;;;;;6245735;23;19904;-70
2022/04/08 08:44:00;;;;;;;;;;;25.40;77.50;;;;;;6245628;23;19904;-70
2022/04/08 08:46:26;;;;;;;;;;;25.60;76.00;;;;;;6246143;23;19910;-71
2022/04/08 08:48:54;;;;;;;;;;;25.70;77.10;;;;;;6245799;23;19908;-71
2022/04/08 08:51:21;;;;;;;;;;;25.70;83.80;;;;;;6245551;23;19903;-70
2022/04/08 08:53:47;;;;;;;;;;;25.30;85.70;;;;;;6245514;23;19910;-71
2022/04/08 08:56:12;;;;;;;;;;;25.20;86.50;;;;;;6218796;23;19904;-71
2022/04/08 08:58:38;;;;;;;;;;;25.10;87.40;;;;;;6244640;23;19903;-65
2022/04/08 09:01:08;;;;;;;;;;;24.90;87.10;;;;;;6244662;23;19903;-69
2022/04/08 09:03:34;;;;;;;;;;;24.80;88.70;;;;;;6245437;23;19911;-71
2022/04/08 09:06:07;;;;;;;;;;;24.40;90.00;;;;;;6245554;23;20234;-70
2022/04/08 09:08:34;;;;;;;;;;;23.90;90.60;;;;;;6244746;23;19911;-70
2022/04/08 09:10:59;;;;;;;;;;;23.80;90.90;;;;;;6245056;23;20269;-69
2022/04/08 09:13:27;;;;;;;;;;;23.60;91.00;;;;;;6244810;23;19974;-69
2022/04/08 09:15:59;;;;;;;;;;;23.60;90.70;;;;;;6244498;23;19908;-70
2022/04/08 09:18:34;;;;;;;;;;;23.70;90.90;;;;;;6245265;23;20289;-71
2022/04/08 09:21:00;;;;;;;;;;;23.80;91.10;;;;;;6244945;23;19982;-71
2022/04/08 09:23:26;;;;;;;;;;;24.00;91.10;;;;;;6245022;23;19911;-71
2022/04/08 09:25:59;;;;;;;;;;;23.90;91.20;;;;;;6218490;23;19908;-70
2022/04/08 09:28:31;;;;;;;;;;;23.50;91.50;;;;;;6245658;23;19912;-70
2022/04/08 09:30:57;;;;;;;;;;;23.50;91.60;;;;;;6245545;23;19908;-71
2022/04/08 09:33:23;;;;;;;;;;;23.60;91.60;;;;;;6246980;23;19903;-70
2022/04/08 09:35:52;;;;;;;;;;;23.40;91.80;;;;;;6246840;23;19904;-69
2022/04/08 09:38:22;;;;;;;;;;;23.50;91.80;;;;;;6246822;23;20321;-67
2022/04/08 09:40:49;;;;;;;;;;;23.40;92.20;;;;;;6247403;23;20084;-68
2022/04/08 09:43:18;;;;;;;;;;;23.30;92.60;;;;;;6247249;23;19903;-70
2022/04/08 09:45:44;;;;;;;;;;;23.20;92.30;;;;;;6246763;23;19904;-70
2022/04/08 09:48:10;;;;;;;;;;;23.10;92.50;;;;;;6246762;23;20046;-69
2022/04/08 09:50:39;;;;;;;;;;;23.00;92.70;;;;;;6246861;23;20313;-69
2022/04/08 09:53:05;;;;;;;;;;;22.70;93.80;;;;;;6246839;23;19903;-70
2022/04/08 09:55:31;;;;;;;;;;;22.90;93.70;;;;;;6246483;23;19903;-70
2022/04/08 09:57:59;;;;;;;;;;;23.00;94.00;;;;;;6246212;23;20361;-70
2022/04/08 10:00:27;;;;;;;;;;;22.90;93.80;;;;;;6246342;23;19948;-69
2022/04/08 10:02:54;;;;;;;;;;;22.80;94.00;;;;;;6245425;23;19903;-71
2022/04/08 10:05:22;;;;;;;;;;;22.90;94.10;;;;;;6246445;23;19925;-71
2022/04/08 10:07:51;;;;;;;;;;;22.90;94.00;;;;;;6219094;23;19916;-69
2022/04/08 10:10:26;;;;;;;;;;;22.60;94.60;;;;;;6246671;23;19916;-70
2022/04/08 10:13:03;;;;;;;;;;;22.50;94.80;;;;;;6245635;23;20038;-70
2022/04/08 10:15:33;;;;;;;;;;;22.50;94.70;;;;;;6218636;23;19915;-69
2022/04/08 10:17:59;;;;;;;;;;;22.60;94.60;;;;;;6245744;23;19908;-68
2022/04/08 10:20:27;;;;;;;;;;;22.60;95.10;;;;;;6218257;23;19904;-69
2022/04/08 10:23:03;;;;;;;;;;;22.40;95.30;;;;;;6245748;23;19907;-68
2022/04/08 10:25:34;;;;;;;;;;;22.40;95.40;;;;;;6246856;23;20297;-70
2022/04/08 10:28:00;;;;;;;;;;;22.60;94.90;;;;;;6245468;23;19946;-69
2022/04/08 10:30:26;;;;;;;;;;;22.60;94.60;;;;;;6246200;23;20258;-70
2022/04/08 10:33:00;;;;;;;;;;;22.10;95.50;;;;;;6246616;23;19903;-70
2022/04/08 10:35:27;;;;;;;;;;;22.30;95.60;;;;;;6218898;23;20313;-71
2022/04/08 10:38:00;;;;;;;;;;;22.10;96.30;;;;;;6218884;23;20169;-71
2022/04/08 10:40:30;;;;;;;;;;;22.20;96.00;;;;;;6245889;23;19903;-69
2022/04/08 10:42:59;;;;;;;;;;;22.20;96.00;;;;;;6245606;23;20345;-69
2022/04/08 10:45:25;;;;;;;;;;;21.80;96.50;;;;;;6246065;23;19907;-69
2022/04/08 10:47:51;;;;;;;;;;;21.60;97.00;;;;;;6245818;23;20232;-70
2022/04/08 10:50:26;;;;;;;;;;;21.50;97.00;;;;;;6245846;23;19911;-70
2022/04/08 10:53:12;;;;;;;;;;;21.50;97.10;;;;;;6245710;23;19903;-70
2022/04/08 10:55:45;;;;;;;;;;;21.50;97.20;;;;;;6245160;23;20275;-70
2022/04/08 10:58:11;;;;;;;;;;;21.50;96.90;;;;;;6246182;23;19971;-71
2022/04/08 11:00:40;;;;;;;;;;;21.50;96.80;;;;;;6245854;23;19910;-70
2022/04/08 11:03:07;;;;;;;;;;;21.10;97.30;;;;;;6217929;23;19953;-68
2022/04/08 11:05:38;;;;;;;;;;;21.00;97.60;;;;;;6245498;23;19910;-70
2022/04/08 11:08:04;;;;;;;;;;;20.90;97.70;;;;;;6245658;23;20001;-71
2022/04/08 11:10:31;;;;;;;;;;;20.70;98.40;;;;;;6245749;23;19960;-70
2022/04/08 11:12:57;;;;;;;;;;;20.60;98.40;;;;;;6245085;23;19910;-70
2022/04/08 11:15:24;;;;;;;;;;;20.50;98.80;;;;;;6217705;23;20243;-69
2022/04/08 11:17:50;;;;;;;;;;;20.40;99.20;;;;;;6245267;23;19903;-69
2022/04/08 11:20:17;;;;;;;;;;;20.50;99.20;;;;;;6246045;23;19986;-70
2022/04/08 11:22:44;;;;;;;;;;;20.70;99.20;;;;;;6245570;23;19972;-69
2022/04/08 11:25:10;;;;;;;;;;;20.90;98.70;;;;;;6245495;23;19903;-70
2022/04/08 11:27:37;;;;;;;;;;;21.30;98.40;;;;;;6245871;23;19938;-70
2022/04/08 11:30:11;;;;;;;;;;;21.50;97.60;;;;;;6245446;23;19926;-70
2022/04/08 11:32:39;;;;;;;;;;;21.40;97.80;;;;;;6246185;23;19931;-70
2022/04/08 11:35:12;;;;;;;;;;;21.20;98.20;;;;;;6245365;23;20305;-70
2022/04/08 11:37:37;;;;;;;;;;;21.10;98.40;;;;;;6245380;23;19954;-70
2022/04/08 11:40:04;;;;;;;;;;;21.20;98.40;;;;;;6245495;23;19933;-70
2022/04/08 11:42:30;;;;;;;;;;;21.10;98.30;;;;;;6245262;23;19943;-70
2022/04/08 11:44:56;;;;;;;;;;;21.30;98.10;;;;;;6245875;23;19903;-72
2022/04/08 11:47:32;;;;;;;;;;;21.50;97.60;;;;;;6245331;23;19908;-70
2022/04/08 11:50:02;;;;;;;;;;;21.30;97.60;;;;;;6245534;23;19907;-68
2022/04/08 11:52:28;;;;;;;;;;;20.60;97.90;;;;;;6245286;23;19908;-69
2022/04/08 11:55:01;;;;;;;;;;;20.40;98.60;;;;;;6245931;23;19974;-70
2022/04/08 11:57:31;;;;;;;;;;;20.60;98.40;;;;;;6244848;23;19904;-70
2022/04/08 11:59:57;;;;;;;;;;;20.60;98.30;;;;;;6217887;23;20339;-70
2022/04/08 12:02:23;;;;;;;;;;;20.60;98.00;;;;;;6244882;23;19926;-71
2022/04/08 12:04:52;;;;;;;;;;;21.00;98.30;;;;;;6246570;23;20313;-70
2022/04/08 12:07:22;;;;;;;;;;;21.40;97.50;;;;;;6246957;23;20218;-71
2022/04/08 12:09:48;;;;;;;;;;;21.50;97.10;;;;;;6246405;23;19978;-72
2022/04/08 12:12:21;;;;;;;;;;;21.50;97.30;;;;;;6245947;23;20324;-72
2022/04/08 12:14:47;;;;;;;;;;;21.60;97.30;;;;;;6246624;23;19910;-68
2022/04/08 12:17:13;;;;;;;;;;;21.60;96.90;;;;;;6245923;23;20278;-69
2022/04/08 12:19:40;;;;;;;;;;;21.50;97.20;;;;;;6246023;23;19904;-70
2022/04/08 12:22:12;;;;;;;;;;;21.30;97.20;;;;;;6245803;23;19904;-70
2022/04/08 12:24:40;;;;;;;;;;;21.30;97.50;;;;;;6246438;23;20321;-69
2022/04/08 12:27:13;;;;;;;;;;;21.30;97.60;;;;;;6245982;23;19907;-69
2022/04/08 12:29:39;;;;;;;;;;;21.50;97.50;;;;;;6246142;23;19907;-69
2022/04/08 12:32:12;;;;;;;;;;;21.40;97.50;;;;;;6246058;23;19957;-66
2022/04/08 12:34:38;;;;;;;;;;;21.50;98.30;;;;;;6246434;23;19915;-68
2022/04/08 12:37:03;;;;;;;;;;;21.90;97.80;;;;;;6246349;23;19904;-70
2022/04/08 12:39:29;;;;;;;;;;;22.10;97.00;;;;;;6245987;23;19957;-70
2022/04/08 12:41:59;;;;;;;;;;;22.30;96.60;;;;;;6245978;23;20284;-69
2022/04/08 12:44:25;;;;;;;;;;;22.50;96.30;;;;;;6245809;23;19907;-69
2022/04/08 12:46:52;;;;;;;;;;;22.70;96.10;;;;;;6246562;23;20334;-69
2022/04/08 12:49:18;;;;;;;;;;;22.60;96.00;;;;;;6246197;23;19912;-69
2022/04/08 12:51:44;;;;;;;;;;;22.50;95.70;;;;;;6245348;23;19931;-69
2022/04/08 12:54:11;;;;;;;;;;;22.60;95.80;;;;;;6245746;23;19949;-70
2022/04/08 12:56:37;;;;;;;;;;;22.50;95.70;;;;;;6244717;23;19934;-69
2022/04/08 12:59:03;;;;;;;;;;;22.00;96.60;;;;;;6245555;23;19910;-70
2022/04/08 13:01:30;;;;;;;;;;;22.30;96.90;;;;;;6245532;23;19904;-70
2022/04/08 13:03:56;;;;;;;;;;;22.30;96.20;;;;;;6246095;23;20364;-70
2022/04/08 13:06:23;;;;;;;;;;;22.30;96.30;;;;;;6246904;23;19904;-70
2022/04/08 13:08:48;;;;;;;;;;;22.40;95.60;;;;;;6248381;23;20293;-70
2022/04/08 13:11:14;;;;;;;;;;;22.60;95.80;;;;;;6247620;23;19954;-70
2022/04/08 13:13:40;;;;;;;;;;;22.60;96.00;;;;;;6247718;23;19957;-69
2022/04/08 13:16:06;;;;;;;;;;;22.70;96.60;;;;;;6247790;23;19914;-69
2022/04/08 13:18:32;;;;;;;;;;;22.90;96.40;;;;;;6248011;23;19904;-70
2022/04/08 13:20:58;;;;;;;;;;;23.10;96.40;;;;;;6248676;23;19907;-69
2022/04/08 13:23:24;;;;;;;;;;;23.00;96.50;;;;;;6248314;23;19938;-71
2022/04/08 13:25:49;;;;;;;;;;;23.10;96.30;;;;;;6248615;23;19958;-71
2022/04/08 13:28:16;;;;;;;;;;;23.20;96.00;;;;;;6220894;23;19965;-71
2022/04/08 13:30:42;;;;;;;;;;;23.10;96.00;;;;;;6248285;23;19910;-71
2022/04/08 13:33:08;;;;;;;;;;;23.10;95.80;;;;;;6247036;23;19915;-70
2022/04/08 13:35:34;;;;;;;;;;;23.10;95.90;;;;;;6247598;23;20340;-70
2022/04/08 13:38:00;;;;;;;;;;;23.20;95.80;;;;;;6247733;23;19903;-71
2022/04/08 13:40:26;;;;;;;;;;;23.20;95.40;;;;;;6248190;23;20002;-68
2022/04/08 13:42:52;;;;;;;;;;;23.30;95.30;;;;;;6247391;23;19910;-70
2022/04/08 13:45:18;;;;;;;;;;;23.20;95.20;;;;;;6247419;23;19908;-70
2022/04/08 13:47:44;;;;;;;;;;;23.10;95.20;;;;;;6247879;23;20274;-70
2022/04/08 13:50:10;;;;;;;;;;;23.00;95.10;;;;;;6247470;23;19978;-70
2022/04/08 13:52:36;;;;;;;;;;;23.00;95.00;;;;;;6246817;23;20006;-69
2022/04/08 13:55:03;;;;;;;;;;;23.00;95.10;;;;;;6247565;23;19907;-70
2022/04/08 13:57:29;;;;;;;;;;;22.90;95.40;;;;;;6247095;23;19915;-69
2022/04/08 13:59:55;;;;;;;;;;;22.80;95.30;;;;;;6246797;23;19903;-70
2022/04/08 14:02:21;;;;;;;;;;;22.70;95.40;;;;;;6247036;23;20299;-72
2022/04/08 14:04:47;;;;;;;;;;;22.60;95.40;;;;;;6246970;23;19942;-71
2022/04/08 14:07:13;;;;;;;;;;;22.60;95.60;;;;;;6247090;23;19908;-70
2022/04/08 14:09:39;;;;;;;;;;;22.50;95.70;;;;;;6246814;23;19920;-70
2022/04/08 14:12:05;;;;;;;;;;;22.50;95.80;;;;;;6246889;23;19910;-70
2022/04/08 14:14:32;;;;;;;;;;;22.50;95.70;;;;;;6247540;23;19982;-71